Osceola, Arkansas
Current Conditions -  °F | °C
As of 8:09 AM on Thursday 18 Dec 2014 (Local Time) from KHKA Reporting Station
Haze Haze  
Wind Chill: 32°   Ceiling: 4900
Heat Index: 37°   Visibility: 6mi
Dew Point: 36°   Wind: 6mph
Humidity: 96%   Direction: 60°ENE
Pressure: 30.27"   Gusts: NA
Location:  35.71°N, 89.97°W
Report Text: KHKA 181409Z AUTO 06005KT 6SM BR FEW008 OVC049 03/02 A3027 RMK AO2 T00280022
Loading
Personal Weather Stations






























Interactive Weather Map New forecast layout! Learn more

10-Day Weather Forecast

Advertisements
Track Severe Weather on mobile